sensor_id;sensor_type;location;lat;lon;timestamp;P1;durP1;ratioP1;P2;durP2;ratioP2
66669;SDS011;53568;52.164;4.472;2023-09-07T00:01:54;11.44;;;11.44;;
66669;SDS011;53568;52.164;4.472;2023-09-07T00:04:20;11.12;;;11.12;;
66669;SDS011;53568;52.164;4.472;2023-09-07T00:06:46;10.89;;;10.89;;
66669;SDS011;53568;52.164;4.472;2023-09-07T00:09:11;11.25;;;11.25;;
66669;SDS011;53568;52.164;4.472;2023-09-07T00:11:38;11.09;;;11.09;;
66669;SDS011;53568;52.164;4.472;2023-09-07T00:14:04;11.16;;;11.16;;
66669;SDS011;53568;52.164;4.472;2023-09-07T00:16:32;11.41;;;11.41;;
66669;SDS011;53568;52.164;4.472;2023-09-07T00:19:01;11.24;;;11.24;;
66669;SDS011;53568;52.164;4.472;2023-09-07T00:21:28;11.34;;;11.34;;
66669;SDS011;53568;52.164;4.472;2023-09-07T00:23:53;11.01;;;11.01;;
66669;SDS011;53568;52.164;4.472;2023-09-07T00:26:20;10.99;;;10.99;;
66669;SDS011;53568;52.164;4.472;2023-09-07T00:28:45;11.11;;;11.11;;
66669;SDS011;53568;52.164;4.472;2023-09-07T00:31:11;12.02;;;12.02;;
66669;SDS011;53568;52.164;4.472;2023-09-07T00:33:36;11.36;;;11.36;;
66669;SDS011;53568;52.164;4.472;2023-09-07T00:36:02;11.63;;;11.63;;
66669;SDS011;53568;52.164;4.472;2023-09-07T00:38:28;11.42;;;11.42;;
66669;SDS011;53568;52.164;4.472;2023-09-07T00:40:54;11.56;;;11.56;;
66669;SDS011;53568;52.164;4.472;2023-09-07T00:43:19;11.69;;;11.69;;
66669;SDS011;53568;52.164;4.472;2023-09-07T00:45:45;11.77;;;11.77;;
66669;SDS011;53568;52.164;4.472;2023-09-07T00:48:14;11.70;;;11.70;;
66669;SDS011;53568;52.164;4.472;2023-09-07T00:50:41;11.19;;;11.19;;
66669;SDS011;53568;52.164;4.472;2023-09-07T00:53:08;11.70;;;11.70;;
66669;SDS011;53568;52.164;4.472;2023-09-07T00:55:35;11.47;;;11.47;;
66669;SDS011;53568;52.164;4.472;2023-09-07T00:58:02;11.90;;;11.90;;
66669;SDS011;53568;52.164;4.472;2023-09-07T01:00:29;11.40;;;11.40;;
66669;SDS011;53568;52.164;4.472;2023-09-07T01:02:55;11.28;;;11.28;;
66669;SDS011;53568;52.164;4.472;2023-09-07T01:05:32;11.25;;;11.25;;
66669;SDS011;53568;52.164;4.472;2023-09-07T01:08:07;11.30;;;11.30;;
66669;SDS011;53568;52.164;4.472;2023-09-07T01:10:40;11.61;;;11.61;;
66669;SDS011;53568;52.164;4.472;2023-09-07T01:13:05;10.99;;;10.99;;
66669;SDS011;53568;52.164;4.472;2023-09-07T01:15:31;11.00;;;11.00;;
66669;SDS011;53568;52.164;4.472;2023-09-07T01:17:57;11.15;;;11.15;;
66669;SDS011;53568;52.164;4.472;2023-09-07T01:20:24;11.06;;;11.06;;
66669;SDS011;53568;52.164;4.472;2023-09-07T01:22:51;11.35;;;11.35;;
66669;SDS011;53568;52.164;4.472;2023-09-07T01:25:18;11.17;;;11.17;;
66669;SDS011;53568;52.164;4.472;2023-09-07T01:27:44;11.38;;;11.38;;
66669;SDS011;53568;52.164;4.472;2023-09-07T01:30:11;11.39;;;11.39;;
66669;SDS011;53568;52.164;4.472;2023-09-07T01:32:36;11.28;;;11.28;;
66669;SDS011;53568;52.164;4.472;2023-09-07T01:35:02;11.26;;;11.26;;
66669;SDS011;53568;52.164;4.472;2023-09-07T01:37:31;11.39;;;11.39;;
66669;SDS011;53568;52.164;4.472;2023-09-07T01:39:57;11.30;;;11.30;;
66669;SDS011;53568;52.164;4.472;2023-09-07T01:42:24;11.63;;;11.63;;
66669;SDS011;53568;52.164;4.472;2023-09-07T01:44:49;11.95;;;11.95;;
66669;SDS011;53568;52.164;4.472;2023-09-07T01:47:15;11.26;;;11.26;;
66669;SDS011;53568;52.164;4.472;2023-09-07T01:49:40;11.54;;;11.54;;
66669;SDS011;53568;52.164;4.472;2023-09-07T01:52:06;12.15;;;12.15;;
66669;SDS011;53568;52.164;4.472;2023-09-07T01:54:31;12.14;;;12.14;;
66669;SDS011;53568;52.164;4.472;2023-09-07T01:56:57;11.84;;;11.84;;
66669;SDS011;53568;52.164;4.472;2023-09-07T01:59:23;12.41;;;12.41;;
66669;SDS011;53568;52.164;4.472;2023-09-07T02:01:48;12.62;;;12.62;;
66669;SDS011;53568;52.164;4.472;2023-09-07T02:04:14;12.12;;;12.12;;
66669;SDS011;53568;52.164;4.472;2023-09-07T02:06:39;12.09;;;12.09;;
66669;SDS011;53568;52.164;4.472;2023-09-07T02:09:05;12.90;;;12.90;;
66669;SDS011;53568;52.164;4.472;2023-09-07T02:11:30;12.83;;;12.83;;
66669;SDS011;53568;52.164;4.472;2023-09-07T02:13:56;12.83;;;12.83;;
66669;SDS011;53568;52.164;4.472;2023-09-07T02:16:21;12.89;;;12.89;;
66669;SDS011;53568;52.164;4.472;2023-09-07T02:18:48;13.41;;;13.41;;
66669;SDS011;53568;52.164;4.472;2023-09-07T02:21:15;13.37;;;13.37;;
66669;SDS011;53568;52.164;4.472;2023-09-07T02:23:40;13.05;;;13.05;;
66669;SDS011;53568;52.164;4.472;2023-09-07T02:26:06;12.37;;;12.37;;
66669;SDS011;53568;52.164;4.472;2023-09-07T02:28:31;12.92;;;12.92;;
66669;SDS011;53568;52.164;4.472;2023-09-07T02:31:03;12.87;;;12.87;;
66669;SDS011;53568;52.164;4.472;2023-09-07T02:33:30;12.92;;;12.92;;
66669;SDS011;53568;52.164;4.472;2023-09-07T02:35:55;12.93;;;12.93;;
66669;SDS011;53568;52.164;4.472;2023-09-07T02:38:22;13.23;;;13.23;;
66669;SDS011;53568;52.164;4.472;2023-09-07T02:40:47;13.49;;;13.49;;
66669;SDS011;53568;52.164;4.472;2023-09-07T02:43:13;13.51;;;13.51;;
66669;SDS011;53568;52.164;4.472;2023-09-07T02:45:38;12.89;;;12.89;;
66669;SDS011;53568;52.164;4.472;2023-09-07T02:48:04;13.42;;;13.42;;
66669;SDS011;53568;52.164;4.472;2023-09-07T02:50:32;13.34;;;13.34;;
66669;SDS011;53568;52.164;4.472;2023-09-07T02:53:02;13.36;;;13.36;;
66669;SDS011;53568;52.164;4.472;2023-09-07T02:55:30;12.96;;;12.96;;
66669;SDS011;53568;52.164;4.472;2023-09-07T02:57:56;13.29;;;13.29;;
66669;SDS011;53568;52.164;4.472;2023-09-07T03:00:22;13.14;;;13.14;;
66669;SDS011;53568;52.164;4.472;2023-09-07T03:02:49;13.23;;;13.23;;
66669;SDS011;53568;52.164;4.472;2023-09-07T03:05:17;13.36;;;13.36;;
66669;SDS011;53568;52.164;4.472;2023-09-07T03:07:44;13.86;;;13.86;;
66669;SDS011;53568;52.164;4.472;2023-09-07T03:10:11;13.79;;;13.79;;
66669;SDS011;53568;52.164;4.472;2023-09-07T03:12:37;14.11;;;14.11;;
66669;SDS011;53568;52.164;4.472;2023-09-07T03:15:03;13.74;;;13.74;;
66669;SDS011;53568;52.164;4.472;2023-09-07T03:17:29;13.80;;;13.80;;
66669;SDS011;53568;52.164;4.472;2023-09-07T03:19:55;14.16;;;14.16;;
66669;SDS011;53568;52.164;4.472;2023-09-07T03:22:22;14.36;;;14.36;;
66669;SDS011;53568;52.164;4.472;2023-09-07T03:24:51;14.44;;;14.44;;
66669;SDS011;53568;52.164;4.472;2023-09-07T03:27:17;14.39;;;14.39;;
66669;SDS011;53568;52.164;4.472;2023-09-07T03:29:46;14.56;;;14.56;;
66669;SDS011;53568;52.164;4.472;2023-09-07T03:32:11;14.47;;;14.47;;
66669;SDS011;53568;52.164;4.472;2023-09-07T03:34:37;15.00;;;15.00;;
66669;SDS011;53568;52.164;4.472;2023-09-07T03:37:02;14.72;;;14.72;;
66669;SDS011;53568;52.164;4.472;2023-09-07T03:39:31;14.97;;;14.97;;
66669;SDS011;53568;52.164;4.472;2023-09-07T03:41:57;14.99;;;14.98;;
66669;SDS011;53568;52.164;4.472;2023-09-07T03:44:23;14.94;;;14.94;;
66669;SDS011;53568;52.164;4.472;2023-09-07T03:46:48;14.81;;;14.81;;
66669;SDS011;53568;52.164;4.472;2023-09-07T03:49:14;15.38;;;15.38;;
66669;SDS011;53568;52.164;4.472;2023-09-07T03:51:39;15.29;;;15.29;;
66669;SDS011;53568;52.164;4.472;2023-09-07T03:54:05;15.62;;;15.62;;
66669;SDS011;53568;52.164;4.472;2023-09-07T03:56:30;15.65;;;15.65;;
66669;SDS011;53568;52.164;4.472;2023-09-07T03:58:56;15.61;;;15.61;;
66669;SDS011;53568;52.164;4.472;2023-09-07T04:01:21;15.61;;;15.61;;
66669;SDS011;53568;52.164;4.472;2023-09-07T04:03:47;15.77;;;15.77;;
66669;SDS011;53568;52.164;4.472;2023-09-07T04:06:12;15.24;;;15.24;;
66669;SDS011;53568;52.164;4.472;2023-09-07T04:08:38;15.59;;;15.59;;
66669;SDS011;53568;52.164;4.472;2023-09-07T04:11:04;15.21;;;15.21;;
66669;SDS011;53568;52.164;4.472;2023-09-07T04:13:30;15.62;;;15.62;;
66669;SDS011;53568;52.164;4.472;2023-09-07T04:15:56;15.39;;;15.39;;
66669;SDS011;53568;52.164;4.472;2023-09-07T04:18:22;15.85;;;15.85;;
66669;SDS011;53568;52.164;4.472;2023-09-07T04:20:49;15.93;;;15.93;;
66669;SDS011;53568;52.164;4.472;2023-09-07T04:23:14;15.51;;;15.51;;
66669;SDS011;53568;52.164;4.472;2023-09-07T04:25:40;15.66;;;15.66;;
66669;SDS011;53568;52.164;4.472;2023-09-07T04:28:05;16.15;;;16.15;;
66669;SDS011;53568;52.164;4.472;2023-09-07T04:30:32;15.54;;;15.54;;
66669;SDS011;53568;52.164;4.472;2023-09-07T04:33:02;16.44;;;16.44;;
66669;SDS011;53568;52.164;4.472;2023-09-07T04:35:30;15.82;;;15.82;;
66669;SDS011;53568;52.164;4.472;2023-09-07T04:37:57;15.97;;;15.97;;
66669;SDS011;53568;52.164;4.472;2023-09-07T04:40:24;16.30;;;16.30;;
66669;SDS011;53568;52.164;4.472;2023-09-07T04:42:50;16.29;;;16.29;;
66669;SDS011;53568;52.164;4.472;2023-09-07T04:45:16;15.68;;;15.68;;
66669;SDS011;53568;52.164;4.472;2023-09-07T04:47:42;15.80;;;15.80;;
66669;SDS011;53568;52.164;4.472;2023-09-07T04:50:08;16.11;;;16.11;;
66669;SDS011;53568;52.164;4.472;2023-09-07T04:52:34;16.40;;;16.40;;
66669;SDS011;53568;52.164;4.472;2023-09-07T04:55:00;15.52;;;15.52;;
66669;SDS011;53568;52.164;4.472;2023-09-07T04:57:26;16.87;;;16.87;;
66669;SDS011;53568;52.164;4.472;2023-09-07T04:59:51;16.21;;;16.21;;
66669;SDS011;53568;52.164;4.472;2023-09-07T05:02:17;16.46;;;16.46;;
66669;SDS011;53568;52.164;4.472;2023-09-07T05:04:42;16.34;;;16.34;;
66669;SDS011;53568;52.164;4.472;2023-09-07T05:07:09;16.36;;;16.36;;
66669;SDS011;53568;52.164;4.472;2023-09-07T05:09:35;16.34;;;16.34;;
66669;SDS011;53568;52.164;4.472;2023-09-07T05:12:00;16.83;;;16.83;;
66669;SDS011;53568;52.164;4.472;2023-09-07T05:14:26;16.18;;;16.18;;
66669;SDS011;53568;52.164;4.472;2023-09-07T05:16:51;16.54;;;16.54;;
66669;SDS011;53568;52.164;4.472;2023-09-07T05:19:17;16.25;;;16.25;;
66669;SDS011;53568;52.164;4.472;2023-09-07T05:21:43;16.42;;;16.42;;
66669;SDS011;53568;52.164;4.472;2023-09-07T05:24:09;16.04;;;16.02;;
66669;SDS011;53568;52.164;4.472;2023-09-07T05:26:34;16.17;;;16.17;;
66669;SDS011;53568;52.164;4.472;2023-09-07T05:29:00;16.03;;;16.03;;
66669;SDS011;53568;52.164;4.472;2023-09-07T05:31:25;16.33;;;16.33;;
66669;SDS011;53568;52.164;4.472;2023-09-07T05:33:52;16.23;;;16.23;;
66669;SDS011;53568;52.164;4.472;2023-09-07T05:36:18;16.32;;;16.32;;
66669;SDS011;53568;52.164;4.472;2023-09-07T05:38:43;16.31;;;16.31;;
66669;SDS011;53568;52.164;4.472;2023-09-07T05:41:09;16.45;;;16.45;;
66669;SDS011;53568;52.164;4.472;2023-09-07T05:43:34;16.31;;;16.31;;
66669;SDS011;53568;52.164;4.472;2023-09-07T05:46:01;16.01;;;16.01;;
66669;SDS011;53568;52.164;4.472;2023-09-07T05:48:27;15.83;;;15.83;;
66669;SDS011;53568;52.164;4.472;2023-09-07T05:50:53;16.37;;;16.37;;
66669;SDS011;53568;52.164;4.472;2023-09-07T05:53:18;15.84;;;15.84;;
66669;SDS011;53568;52.164;4.472;2023-09-07T05:55:49;16.16;;;16.16;;
66669;SDS011;53568;52.164;4.472;2023-09-07T05:58:15;15.94;;;15.94;;
66669;SDS011;53568;52.164;4.472;2023-09-07T06:00:41;16.10;;;16.10;;
66669;SDS011;53568;52.164;4.472;2023-09-07T06:03:07;16.36;;;16.36;;
66669;SDS011;53568;52.164;4.472;2023-09-07T06:05:34;15.63;;;15.63;;
66669;SDS011;53568;52.164;4.472;2023-09-07T06:08:04;16.14;;;16.14;;
66669;SDS011;53568;52.164;4.472;2023-09-07T06:10:34;16.80;;;16.80;;
66669;SDS011;53568;52.164;4.472;2023-09-07T06:13:00;16.89;;;16.89;;
66669;SDS011;53568;52.164;4.472;2023-09-07T06:15:25;16.63;;;16.63;;
66669;SDS011;53568;52.164;4.472;2023-09-07T06:17:51;15.66;;;15.66;;
66669;SDS011;53568;52.164;4.472;2023-09-07T06:20:16;16.30;;;16.30;;
66669;SDS011;53568;52.164;4.472;2023-09-07T06:22:44;16.45;;;16.45;;
66669;SDS011;53568;52.164;4.472;2023-09-07T06:25:10;16.63;;;16.62;;
66669;SDS011;53568;52.164;4.472;2023-09-07T06:27:36;15.97;;;15.97;;
66669;SDS011;53568;52.164;4.472;2023-09-07T06:30:02;16.26;;;16.26;;
66669;SDS011;53568;52.164;4.472;2023-09-07T06:32:28;16.71;;;16.71;;
66669;SDS011;53568;52.164;4.472;2023-09-07T06:34:58;16.41;;;16.41;;
66669;SDS011;53568;52.164;4.472;2023-09-07T06:37:24;16.85;;;16.85;;
66669;SDS011;53568;52.164;4.472;2023-09-07T06:39:50;16.61;;;16.61;;
66669;SDS011;53568;52.164;4.472;2023-09-07T06:42:17;16.07;;;16.07;;
66669;SDS011;53568;52.164;4.472;2023-09-07T06:44:42;15.64;;;15.64;;
66669;SDS011;53568;52.164;4.472;2023-09-07T06:47:08;16.24;;;16.24;;
66669;SDS011;53568;52.164;4.472;2023-09-07T06:49:34;15.69;;;15.69;;
66669;SDS011;53568;52.164;4.472;2023-09-07T06:51:59;16.12;;;16.12;;
66669;SDS011;53568;52.164;4.472;2023-09-07T06:54:27;16.05;;;16.05;;
66669;SDS011;53568;52.164;4.472;2023-09-07T06:56:53;15.57;;;15.57;;
66669;SDS011;53568;52.164;4.472;2023-09-07T06:59:18;15.47;;;15.45;;
66669;SDS011;53568;52.164;4.472;2023-09-07T07:01:44;15.59;;;15.59;;
66669;SDS011;53568;52.164;4.472;2023-09-07T07:04:09;15.18;;;15.18;;
66669;SDS011;53568;52.164;4.472;2023-09-07T07:06:35;15.29;;;15.29;;
66669;SDS011;53568;52.164;4.472;2023-09-07T07:09:00;15.29;;;15.29;;
66669;SDS011;53568;52.164;4.472;2023-09-07T07:11:26;15.02;;;15.02;;
66669;SDS011;53568;52.164;4.472;2023-09-07T07:13:51;14.37;;;14.37;;
66669;SDS011;53568;52.164;4.472;2023-09-07T07:16:17;14.51;;;14.51;;
66669;SDS011;53568;52.164;4.472;2023-09-07T07:18:43;14.86;;;14.86;;
66669;SDS011;53568;52.164;4.472;2023-09-07T07:21:08;14.20;;;14.20;;
66669;SDS011;53568;52.164;4.472;2023-09-07T07:23:34;14.41;;;14.41;;
66669;SDS011;53568;52.164;4.472;2023-09-07T07:26:01;14.30;;;14.30;;
66669;SDS011;53568;52.164;4.472;2023-09-07T07:28:27;14.26;;;14.26;;
66669;SDS011;53568;52.164;4.472;2023-09-07T07:30:58;14.56;;;14.56;;
66669;SDS011;53568;52.164;4.472;2023-09-07T07:33:33;14.37;;;14.37;;
66669;SDS011;53568;52.164;4.472;2023-09-07T07:35:59;14.83;;;14.83;;
66669;SDS011;53568;52.164;4.472;2023-09-07T07:38:24;14.35;;;14.35;;
66669;SDS011;53568;52.164;4.472;2023-09-07T07:40:50;14.57;;;14.57;;
66669;SDS011;53568;52.164;4.472;2023-09-07T07:43:18;14.40;;;14.40;;
66669;SDS011;53568;52.164;4.472;2023-09-07T07:45:43;14.38;;;14.38;;
66669;SDS011;53568;52.164;4.472;2023-09-07T07:48:09;14.33;;;14.31;;
66669;SDS011;53568;52.164;4.472;2023-09-07T07:50:38;14.35;;;14.35;;
66669;SDS011;53568;52.164;4.472;2023-09-07T07:53:05;14.11;;;14.11;;
66669;SDS011;53568;52.164;4.472;2023-09-07T07:55:35;14.13;;;14.13;;
66669;SDS011;53568;52.164;4.472;2023-09-07T07:58:07;14.16;;;14.16;;
66669;SDS011;53568;52.164;4.472;2023-09-07T08:00:37;13.90;;;13.90;;
66669;SDS011;53568;52.164;4.472;2023-09-07T08:03:12;13.55;;;13.55;;
66669;SDS011;53568;52.164;4.472;2023-09-07T08:05:38;13.92;;;13.92;;
66669;SDS011;53568;52.164;4.472;2023-09-07T08:08:05;13.49;;;13.49;;
66669;SDS011;53568;52.164;4.472;2023-09-07T08:10:33;12.90;;;12.90;;
66669;SDS011;53568;52.164;4.472;2023-09-07T08:13:02;12.55;;;12.55;;
66669;SDS011;53568;52.164;4.472;2023-09-07T08:15:29;12.26;;;12.26;;
66669;SDS011;53568;52.164;4.472;2023-09-07T08:17:56;12.40;;;12.40;;
66669;SDS011;53568;52.164;4.472;2023-09-07T08:20:22;11.90;;;11.90;;
66669;SDS011;53568;52.164;4.472;2023-09-07T08:22:48;12.02;;;12.02;;
66669;SDS011;53568;52.164;4.472;2023-09-07T08:25:13;11.91;;;11.91;;
66669;SDS011;53568;52.164;4.472;2023-09-07T08:27:40;11.69;;;11.69;;
66669;SDS011;53568;52.164;4.472;2023-09-07T08:30:13;12.00;;;12.00;;
66669;SDS011;53568;52.164;4.472;2023-09-07T08:32:44;11.52;;;11.52;;
66669;SDS011;53568;52.164;4.472;2023-09-07T08:35:11;11.53;;;11.53;;
66669;SDS011;53568;52.164;4.472;2023-09-07T08:37:42;11.53;;;11.53;;
66669;SDS011;53568;52.164;4.472;2023-09-07T08:40:07;11.54;;;11.54;;
66669;SDS011;53568;52.164;4.472;2023-09-07T08:42:37;11.42;;;11.42;;
66669;SDS011;53568;52.164;4.472;2023-09-07T08:45:04;11.48;;;11.48;;
66669;SDS011;53568;52.164;4.472;2023-09-07T08:47:36;11.24;;;11.24;;
66669;SDS011;53568;52.164;4.472;2023-09-07T08:50:04;10.88;;;10.88;;
66669;SDS011;53568;52.164;4.472;2023-09-07T08:52:34;11.12;;;11.12;;
66669;SDS011;53568;52.164;4.472;2023-09-07T08:55:00;11.36;;;11.36;;
66669;SDS011;53568;52.164;4.472;2023-09-07T08:57:29;10.44;;;10.44;;
66669;SDS011;53568;52.164;4.472;2023-09-07T08:59:58;10.92;;;10.92;;
66669;SDS011;53568;52.164;4.472;2023-09-07T09:02:24;11.55;;;11.55;;
66669;SDS011;53568;52.164;4.472;2023-09-07T09:04:50;11.32;;;11.32;;
66669;SDS011;53568;52.164;4.472;2023-09-07T09:07:15;11.46;;;11.46;;
66669;SDS011;53568;52.164;4.472;2023-09-07T09:09:41;11.83;;;11.83;;
66669;SDS011;53568;52.164;4.472;2023-09-07T09:12:10;11.96;;;11.96;;
66669;SDS011;53568;52.164;4.472;2023-09-07T09:14:37;11.73;;;11.73;;
66669;SDS011;53568;52.164;4.472;2023-09-07T09:17:02;10.82;;;10.82;;
66669;SDS011;53568;52.164;4.472;2023-09-07T09:19:31;10.60;;;10.60;;
66669;SDS011;53568;52.164;4.472;2023-09-07T09:21:58;10.79;;;10.79;;
66669;SDS011;53568;52.164;4.472;2023-09-07T09:24:24;11.58;;;11.58;;
66669;SDS011;53568;52.164;4.472;2023-09-07T09:26:50;11.45;;;11.45;;
66669;SDS011;53568;52.164;4.472;2023-09-07T09:29:15;11.11;;;11.11;;
66669;SDS011;53568;52.164;4.472;2023-09-07T09:31:41;10.47;;;10.47;;
66669;SDS011;53568;52.164;4.472;2023-09-07T09:34:08;9.75;;;9.75;;
66669;SDS011;53568;52.164;4.472;2023-09-07T09:36:34;9.93;;;9.93;;
66669;SDS011;53568;52.164;4.472;2023-09-07T09:39:01;10.19;;;10.19;;
66669;SDS011;53568;52.164;4.472;2023-09-07T09:41:29;9.75;;;9.75;;
66669;SDS011;53568;52.164;4.472;2023-09-07T09:43:57;9.94;;;9.94;;
66669;SDS011;53568;52.164;4.472;2023-09-07T09:46:23;9.85;;;9.85;;
66669;SDS011;53568;52.164;4.472;2023-09-07T09:48:50;9.57;;;9.57;;
66669;SDS011;53568;52.164;4.472;2023-09-07T09:51:17;9.41;;;9.41;;
66669;SDS011;53568;52.164;4.472;2023-09-07T09:53:44;9.08;;;9.08;;
66669;SDS011;53568;52.164;4.472;2023-09-07T09:56:09;8.44;;;8.44;;
66669;SDS011;53568;52.164;4.472;2023-09-07T09:58:35;8.37;;;8.37;;
66669;SDS011;53568;52.164;4.472;2023-09-07T10:01:00;8.57;;;8.57;;
66669;SDS011;53568;52.164;4.472;2023-09-07T10:03:38;7.99;;;7.99;;
66669;SDS011;53568;52.164;4.472;2023-09-07T10:06:18;8.31;;;8.31;;
66669;SDS011;53568;52.164;4.472;2023-09-07T10:08:52;7.68;;;7.68;;
66669;SDS011;53568;52.164;4.472;2023-09-07T10:11:25;7.12;;;7.12;;
66669;SDS011;53568;52.164;4.472;2023-09-07T10:14:03;7.31;;;7.31;;
66669;SDS011;53568;52.164;4.472;2023-09-07T10:19:21;7.25;;;7.25;;
66669;SDS011;53568;52.164;4.472;2023-09-07T10:21:48;7.93;;;7.93;;
66669;SDS011;53568;52.164;4.472;2023-09-07T10:24:25;7.96;;;7.96;;
66669;SDS011;53568;52.164;4.472;2023-09-07T10:26:59;7.77;;;7.77;;
66669;SDS011;53568;52.164;4.472;2023-09-07T10:32:10;7.85;;;7.85;;
66669;SDS011;53568;52.164;4.472;2023-09-07T10:34:39;7.71;;;7.71;;
66669;SDS011;53568;52.164;4.472;2023-09-07T10:37:14;8.02;;;8.02;;
66669;SDS011;53568;52.164;4.472;2023-09-07T10:39:41;6.88;;;6.88;;
66669;SDS011;53568;52.164;4.472;2023-09-07T10:42:21;7.13;;;7.13;;
66669;SDS011;53568;52.164;4.472;2023-09-07T10:44:48;7.66;;;7.66;;
66669;SDS011;53568;52.164;4.472;2023-09-07T10:47:14;7.67;;;7.67;;
66669;SDS011;53568;52.164;4.472;2023-09-07T10:49:40;7.63;;;7.63;;
66669;SDS011;53568;52.164;4.472;2023-09-07T10:52:05;6.88;;;6.88;;
66669;SDS011;53568;52.164;4.472;2023-09-07T10:54:31;7.29;;;7.29;;
66669;SDS011;53568;52.164;4.472;2023-09-07T10:56:57;7.18;;;7.18;;
66669;SDS011;53568;52.164;4.472;2023-09-07T10:59:33;7.66;;;7.66;;
66669;SDS011;53568;52.164;4.472;2023-09-07T11:02:05;6.78;;;6.78;;
66669;SDS011;53568;52.164;4.472;2023-09-07T11:04:31;7.20;;;7.20;;
66669;SDS011;53568;52.164;4.472;2023-09-07T11:06:57;6.87;;;6.87;;
66669;SDS011;53568;52.164;4.472;2023-09-07T11:09:23;7.01;;;7.01;;
66669;SDS011;53568;52.164;4.472;2023-09-07T11:11:48;6.94;;;6.94;;
66669;SDS011;53568;52.164;4.472;2023-09-07T11:14:14;7.03;;;7.03;;
66669;SDS011;53568;52.164;4.472;2023-09-07T11:16:40;7.11;;;7.11;;
66669;SDS011;53568;52.164;4.472;2023-09-07T11:19:06;6.95;;;6.95;;
66669;SDS011;53568;52.164;4.472;2023-09-07T11:21:36;6.57;;;6.57;;
66669;SDS011;53568;52.164;4.472;2023-09-07T11:24:01;6.78;;;6.78;;
66669;SDS011;53568;52.164;4.472;2023-09-07T11:26:40;6.66;;;6.66;;
66669;SDS011;53568;52.164;4.472;2023-09-07T11:29:07;6.54;;;6.54;;
66669;SDS011;53568;52.164;4.472;2023-09-07T11:31:32;6.31;;;6.31;;
66669;SDS011;53568;52.164;4.472;2023-09-07T11:33:58;6.18;;;6.18;;
66669;SDS011;53568;52.164;4.472;2023-09-07T11:36:23;6.41;;;6.41;;
66669;SDS011;53568;52.164;4.472;2023-09-07T11:38:49;6.15;;;6.15;;
66669;SDS011;53568;52.164;4.472;2023-09-07T11:41:15;6.10;;;6.10;;
66669;SDS011;53568;52.164;4.472;2023-09-07T11:43:40;6.35;;;6.35;;
66669;SDS011;53568;52.164;4.472;2023-09-07T11:46:07;6.00;;;6.00;;
66669;SDS011;53568;52.164;4.472;2023-09-07T11:48:33;6.31;;;6.31;;
66669;SDS011;53568;52.164;4.472;2023-09-07T11:50:59;6.16;;;6.16;;
66669;SDS011;53568;52.164;4.472;2023-09-07T11:53:25;6.10;;;6.10;;
66669;SDS011;53568;52.164;4.472;2023-09-07T11:55:51;6.38;;;6.38;;
66669;SDS011;53568;52.164;4.472;2023-09-07T11:58:16;5.64;;;5.64;;
66669;SDS011;53568;52.164;4.472;2023-09-07T12:00:42;6.06;;;6.06;;
66669;SDS011;53568;52.164;4.472;2023-09-07T12:03:08;5.75;;;5.75;;
66669;SDS011;53568;52.164;4.472;2023-09-07T12:05:34;5.78;;;5.78;;
66669;SDS011;53568;52.164;4.472;2023-09-07T12:08:02;5.87;;;5.87;;
66669;SDS011;53568;52.164;4.472;2023-09-07T12:10:28;5.82;;;5.82;;
66669;SDS011;53568;52.164;4.472;2023-09-07T12:12:54;5.64;;;5.64;;
66669;SDS011;53568;52.164;4.472;2023-09-07T12:15:19;5.87;;;5.87;;
66669;SDS011;53568;52.164;4.472;2023-09-07T12:17:45;5.47;;;5.47;;
66669;SDS011;53568;52.164;4.472;2023-09-07T12:20:11;5.59;;;5.59;;
66669;SDS011;53568;52.164;4.472;2023-09-07T12:22:39;5.60;;;5.60;;
66669;SDS011;53568;52.164;4.472;2023-09-07T12:25:06;5.79;;;5.79;;
66669;SDS011;53568;52.164;4.472;2023-09-07T12:27:35;5.74;;;5.74;;
66669;SDS011;53568;52.164;4.472;2023-09-07T12:30:01;5.89;;;5.89;;
66669;SDS011;53568;52.164;4.472;2023-09-07T12:32:29;5.66;;;5.66;;
66669;SDS011;53568;52.164;4.472;2023-09-07T12:34:55;5.48;;;5.48;;
66669;SDS011;53568;52.164;4.472;2023-09-07T12:37:21;5.77;;;5.77;;
66669;SDS011;53568;52.164;4.472;2023-09-07T12:39:49;6.06;;;6.06;;
66669;SDS011;53568;52.164;4.472;2023-09-07T12:42:15;5.62;;;5.62;;
66669;SDS011;53568;52.164;4.472;2023-09-07T12:44:40;5.68;;;5.68;;
66669;SDS011;53568;52.164;4.472;2023-09-07T12:47:06;5.79;;;5.79;;
66669;SDS011;53568;52.164;4.472;2023-09-07T12:49:31;5.38;;;5.38;;
66669;SDS011;53568;52.164;4.472;2023-09-07T12:51:57;5.60;;;5.60;;
66669;SDS011;53568;52.164;4.472;2023-09-07T12:54:22;5.74;;;5.74;;
66669;SDS011;53568;52.164;4.472;2023-09-07T12:56:48;5.80;;;5.80;;
66669;SDS011;53568;52.164;4.472;2023-09-07T12:59:14;5.53;;;5.53;;
66669;SDS011;53568;52.164;4.472;2023-09-07T13:01:39;5.90;;;5.90;;
66669;SDS011;53568;52.164;4.472;2023-09-07T13:04:05;5.62;;;5.62;;
66669;SDS011;53568;52.164;4.472;2023-09-07T13:06:31;5.55;;;5.55;;
66669;SDS011;53568;52.164;4.472;2023-09-07T13:08:56;5.30;;;5.30;;
66669;SDS011;53568;52.164;4.472;2023-09-07T13:11:22;5.45;;;5.45;;
66669;SDS011;53568;52.164;4.472;2023-09-07T13:13:47;5.54;;;5.54;;
66669;SDS011;53568;52.164;4.472;2023-09-07T13:16:13;5.49;;;5.49;;
66669;SDS011;53568;52.164;4.472;2023-09-07T13:18:39;5.59;;;5.59;;
66669;SDS011;53568;52.164;4.472;2023-09-07T13:21:05;5.46;;;5.46;;
66669;SDS011;53568;52.164;4.472;2023-09-07T13:23:30;5.70;;;5.70;;
66669;SDS011;53568;52.164;4.472;2023-09-07T13:25:56;5.67;;;5.67;;
66669;SDS011;53568;52.164;4.472;2023-09-07T13:28:23;5.81;;;5.81;;
66669;SDS011;53568;52.164;4.472;2023-09-07T13:30:49;5.94;;;5.94;;
66669;SDS011;53568;52.164;4.472;2023-09-07T13:33:15;5.66;;;5.66;;
66669;SDS011;53568;52.164;4.472;2023-09-07T13:35:41;5.55;;;5.55;;
66669;SDS011;53568;52.164;4.472;2023-09-07T13:38:06;5.67;;;5.67;;
66669;SDS011;53568;52.164;4.472;2023-09-07T13:40:32;5.91;;;5.91;;
66669;SDS011;53568;52.164;4.472;2023-09-07T13:42:58;5.91;;;5.91;;
66669;SDS011;53568;52.164;4.472;2023-09-07T13:45:23;5.92;;;5.92;;
66669;SDS011;53568;52.164;4.472;2023-09-07T13:47:49;6.25;;;6.25;;
66669;SDS011;53568;52.164;4.472;2023-09-07T13:50:15;6.05;;;6.05;;
66669;SDS011;53568;52.164;4.472;2023-09-07T13:52:40;6.28;;;6.28;;
66669;SDS011;53568;52.164;4.472;2023-09-07T13:55:09;6.46;;;6.46;;
66669;SDS011;53568;52.164;4.472;2023-09-07T13:57:34;5.90;;;5.90;;
66669;SDS011;53568;52.164;4.472;2023-09-07T14:00:00;5.86;;;5.86;;
66669;SDS011;53568;52.164;4.472;2023-09-07T14:02:25;6.17;;;6.17;;
66669;SDS011;53568;52.164;4.472;2023-09-07T14:04:51;6.14;;;6.14;;
66669;SDS011;53568;52.164;4.472;2023-09-07T14:07:17;6.05;;;6.05;;
66669;SDS011;53568;52.164;4.472;2023-09-07T14:09:43;6.44;;;6.44;;
66669;SDS011;53568;52.164;4.472;2023-09-07T14:12:09;6.54;;;6.54;;
66669;SDS011;53568;52.164;4.472;2023-09-07T14:14:34;6.15;;;6.15;;
66669;SDS011;53568;52.164;4.472;2023-09-07T14:17:00;6.42;;;6.42;;
66669;SDS011;53568;52.164;4.472;2023-09-07T14:19:26;6.25;;;6.25;;
66669;SDS011;53568;52.164;4.472;2023-09-07T14:21:56;6.68;;;6.68;;
66669;SDS011;53568;52.164;4.472;2023-09-07T14:24:22;6.20;;;6.20;;
66669;SDS011;53568;52.164;4.472;2023-09-07T14:26:48;6.53;;;6.53;;
66669;SDS011;53568;52.164;4.472;2023-09-07T14:29:14;6.16;;;6.16;;
66669;SDS011;53568;52.164;4.472;2023-09-07T14:31:39;6.27;;;6.27;;
66669;SDS011;53568;52.164;4.472;2023-09-07T14:34:07;6.20;;;6.20;;